METAR Data
IDs: Format: Raw Decoded Include TAF

Data at: 1205 UTC 23 Sep 2018

KSNL 231155Z AUTO 05006KT 5SM BR OVC005 17/16 A3001 RMK AO2 T01650156 10176 20165
KSNL 231135Z AUTO 04007KT 10SM OVC005 17/16 A3001 RMK AO2 T01650155
KSNL 231115Z AUTO 05009KT 10SM OVC007 17/16 A3001 RMK AO2 T01660155
KSNL 231055Z AUTO 03005KT 10SM OVC007 17/16 A3000 RMK AO2 T01680155
KSNL 231035Z AUTO 04007KT 10SM OVC007 17/16 A3000 RMK AO2 T01700155
KSNL 231015Z AUTO 04005KT 10SM OVC007 17/16 A3000 RMK AO2 T01680155
KSNL 230955Z AUTO 03008KT 10SM OVC007 17/16 A3001 RMK AO2 T01690155
KSNL 230935Z AUTO 03007KT 10SM OVC009 17/16 A3001 RMK AO2 T01700155
KSNL 230915Z AUTO 05008KT 10SM OVC009 17/15 A3001 RMK AO2 T01700153
KSNL 230850Z AUTO 04006KT 10SM OVC011 17/15 A3001 RMK AO2 T01720153
KSNL 230835Z AUTO 04005KT 10SM OVC011 17/15 A3002 RMK AO2 T01730153
KSNL 230815Z AUTO 06007KT 10SM OVC011 17/15 A3002 RMK AO2 T01730152
KSNL 230755Z AUTO 05004KT 10SM OVC013 18/15 A3002 RMK AO2 T01750152
KSNL 230735Z AUTO 06006KT 10SM OVC013 18/15 A3002 RMK AO2 T01750152
KSNL 230715Z AUTO 06004KT 10SM OVC013 18/15 A3002 RMK AO2 T01750151
KSNL 230655Z AUTO 05004KT 10SM OVC013 18/15 A3002 RMK AO2 T01750151
KSNL 230635Z AUTO 07007KT 10SM OVC013 18/15 A3002 RMK AO2 T01750151
KSNL 230615Z AUTO 07006KT 10SM OVC013 18/15 A3003 RMK AO2 T01750151
KSNL 230555Z AUTO 06005KT 10SM OVC013 18/15 A3003 RMK AO2 T01760153 10200 20176 402020146
KSNL 230535Z AUTO 06006KT 10SM OVC018 18/15 A3003 RMK AO2 T01770154
KSNL 230515Z AUTO 06005KT 10SM OVC020 18/16 A3003 RMK AO2 T01780155
KSNL 230455Z AUTO 04006KT 10SM OVC020 18/16 A3004 RMK AO2 T01800155
KSNL 230435Z AUTO 07008KT 10SM OVC022 18/16 A3004 RMK AO2 T01800155
KSNL 230415Z AUTO 06006KT 10SM OVC022 18/16 A3004 RMK AO2 T01800155
KSNL 230355Z AUTO 08007KT 10SM OVC026 18/16 A3005 RMK AO2 T01810155
KSNL 230335Z AUTO 07006KT 10SM OVC026 18/16 A3006 RMK AO2 T01830156
KSNL 230315Z AUTO 06007KT 10SM OVC026 19/16 A3006 RMK AO2 T01850155
KSNL 230255Z AUTO 06007KT 10SM SCT017 OVC026 19/16 A3006 RMK AO2 T01890156
KSNL 230235Z AUTO 07006KT 10SM BKN017 OVC026 19/16 A3006 RMK AO2 T01900161
KSNL 230215Z AUTO 07005KT 10SM BKN020 OVC026 19/17 A3006 RMK AO2 T01910166
KSNL 230155Z AUTO 05004KT 10SM OVC024 19/17 A3005 RMK AO2 T01920167
KSNL 230135Z AUTO 04005KT 10SM OVC026 20/17 A3004 RMK AO2 T01950166
KSNL 230115Z AUTO 04006KT 10SM OVC026 20/17 A3004 RMK AO2 T01950165
KSNL 230055Z AUTO 05004KT 10SM OVC026 20/17 A3004 RMK AO2 T01950165
KSNL 230035Z AUTO 04006KT 10SM OVC024 20/16 A3003 RMK AO2 T01960164
KSNL 230015Z AUTO 04003KT 10SM OVC024 20/16 A3004 RMK AO2 T01980164
KSNL 222355Z AUTO 04003KT 10SM OVC024 20/16 A3003 RMK AO2 T02000163 10202 20181
KSNL 222335Z AUTO 04003KT 10SM OVC022 20/16 A3003 RMK AO2 T02000162
KSNL 222315Z AUTO 04007KT 10SM OVC022 20/16 A3003 RMK AO2 T02000162
KSNL 222255Z AUTO 05007KT 10SM BKN024 BKN031 20/16 A3003 RMK AO2 T02020161
KSNL 222235Z AUTO 04009KT 10SM OVC024 20/16 A3003 RMK AO2 T02000160
KSNL 222215Z AUTO 05008KT 10SM OVC022 20/16 A3003 RMK AO2 T02000160
KSNL 222155Z AUTO 04007KT 10SM OVC020 20/16 A3004 RMK AO2 T02000162
KSNL 222135Z AUTO 05008G14KT 10SM OVC020 20/16 A3005 RMK AO2 LTG DSNT S T02000160
KSNL 222115Z AUTO 04010KT 10SM OVC018 20/16 A3005 RMK AO2 T01990160
KSNL 222055Z AUTO 05009KT 10SM OVC018 20/16 A3006 RMK AO2 T01990160
KSNL 222035Z AUTO 04008KT 10SM OVC018 20/16 A3006 RMK AO2 T01960159
KSNL 222015Z AUTO 04008KT 10SM OVC016 20/16 A3006 RMK AO2 T01960159
KSNL 221955Z AUTO 04006KT 10SM OVC016 20/16 A3007 RMK AO2 T01950158
KSNL 221935Z AUTO 04009KT 10SM OVC016 19/16 A3007 RMK AO2 T01910156
KSNL 221915Z AUTO 04008KT 10SM OVC016 19/16 A3008 RMK AO2 T01900155
KSNL 221855Z AUTO 04010KT 10SM OVC014 19/15 A3009 RMK AO2 T01890154
KSNL 221835Z AUTO 05010G16KT 10SM OVC014 19/15 A3010 RMK AO2 T01850151
KSNL 221815Z AUTO 04011KT 10SM OVC014 18/15 A3010 RMK AO2 T01840151
KSNL 221755Z AUTO 04010G16KT 10SM OVC014 18/15 A3011 RMK AO2 T01820150 10182 20153
KSNL 221735Z AUTO 03009KT 10SM OVC014 18/15 A3011 RMK AO2 T01810151
KSNL 221715Z AUTO 03011G15KT 10SM OVC012 18/15 A3012 RMK AO2 T01800149
KSNL 221655Z AUTO 03010G14KT 10SM OVC012 18/15 A3013 RMK AO2 T01780149
KSNL 221635Z AUTO 04012G15KT 10SM OVC012 18/15 A3013 RMK AO2 T01750146
KSNL 221615Z AUTO 05011G15KT 10SM OVC010 17/15 A3013 RMK AO2 T01720147
KSNL 221555Z AUTO 04014KT 10SM OVC010 17/15 A3013 RMK AO2 T01700146
KSNL 221535Z AUTO 06011G15KT 10SM OVC010 17/15 A3013 RMK AO2 T01690146
KSNL 221515Z AUTO 04010G16KT 10SM OVC010 17/14 A3013 RMK AO2 T01660144
KSNL 221455Z AUTO 04013G18KT 10SM OVC010 17/14 A3012 RMK AO2 T01650143
KSNL 221435Z AUTO 04012G17KT 10SM OVC010 16/14 A3012 RMK AO2 T01630141
KSNL 221415Z AUTO 03012G16KT 10SM OVC010 16/14 A3012 RMK AO2 T01590139
KSNL 221355Z AUTO 03012KT 10SM OVC012 16/14 A3012 RMK AO2 T01560138
KSNL 221335Z AUTO 03013KT 10SM BKN012 OVC017 16/14 A3012 RMK AO2 T01550137
KSNL 221315Z AUTO 03013KT 10SM OVC016 16/14 A3012 RMK AO2 T01550136
KSNL 221255Z AUTO 03011KT 10SM SCT012 OVC016 15/14 A3012 RMK AO2 T01530136
KSNL 221235Z AUTO 03010KT 10SM OVC016 15/14 A3011 RMK AO2 T01530136
KSNL 221215Z AUTO 03013G18KT 10SM OVC016 15/14 A3011 RMK AO2 T01530136
KSNL 221155Z AUTO 03013G17KT 10SM OVC016 15/14 A3011 RMK AO2 60006 70238 T01530136 10155 20146
KSNL 221135Z AUTO 03012KT 10SM OVC016 15/14 A3011 RMK AO2 T01530136
KSNL 221115Z AUTO 03011KT 10SM OVC016 15/14 A3011 RMK AO2 T01530136
KSNL 221055Z AUTO 04010G18KT 10SM OVC016 15/14 A3011 RMK AO2 T01520135
KSNL 221035Z AUTO 04011KT 10SM OVC014 15/14 A3011 RMK AO2 T01470136
KSNL 221015Z AUTO 03012KT 10SM -DZ OVC014 15/14 A3011 RMK AO2 T01470136
KSNL 220955Z AUTO 03011KT 10SM -DZ OVC017 15/14 A3011 RMK AO2 P0003 T01500135
KSNL 220935Z AUTO 03013G16KT 10SM -RA OVC015 15/14 A3011 RMK AO2 P0003 T01510136
KSNL 220915Z AUTO 02010G16KT 10SM -RA BKN015 OVC023 15/14 A3011 RMK AO2 P0002 T01520138
KSNL 220855Z AUTO 03010KT 10SM -RA BKN013 OVC021 15/14 A3011 RMK AO2 P0003 60003 T01530140
KSNL 220835Z AUTO 03010G18KT 10SM -RA BKN015 OVC021 16/14 A3011 RMK AO2 P0001 T01550140
KSNL 220815Z AUTO 04013G24KT 10SM OVC013 15/14 A3011 RMK AO2 T01530136
KSNL 220755Z AUTO 04013G17KT 10SM OVC013 15/14 A3011 RMK AO2 T01520140
KSNL 220735Z AUTO 03011G19KT 10SM OVC011 15/14 A3012 RMK AO2 LTG DSNT S T01520141
KSNL 220715Z AUTO 03013G18KT 10SM -RA BKN011 OVC014 15/14 A3012 RMK AO2 T01520141
KSNL 220655Z AUTO 04012KT 10SM -DZ OVC009 15/14 A3012 RMK AO2 T01510141
KSNL 220635Z AUTO 03011KT 10SM OVC007 15/14 A3012 RMK AO2 T01510142
KSNL 220615Z AUTO 03016KT 10SM -DZ OVC007 15/14 A3012 RMK AO2 T01500142
KSNL 220555Z AUTO 02013G17KT 10SM -RA OVC005 15/14 A3013 RMK AO2 P0002 60017 T01500143 10168 20150 402290150
KSNL 220535Z AUTO 01013G19KT 10SM -RA OVC005 15/15 A3013 RMK AO2 P0001 T01520145
KSNL 220515Z AUTO 01012KT 10SM -RA OVC005 16/15 A3013 RMK AO2 T01570150
KSNL 220455Z AUTO 01010KT 10SM -DZ OVC007 16/16 A3014 RMK AO2 T01630155
KSNL 220435Z AUTO 02009G14KT 10SM BKN007 OVC010 17/16 A3014 RMK AO2 T01680160
KSNL 220415Z AUTO 02010KT 10SM OVC007 17/16 A3014 RMK AO2 T01670160
KSNL 220355Z AUTO 04009KT 10SM BKN009 BKN042 OVC100 17/16 A3013 RMK AO2 P0001 T01680160
KSNL 220335Z AUTO 05011G15KT 10SM -DZ SCT070 OVC100 17/16 A3012 RMK AO2 P0001 T01670157
KSNL 220315Z AUTO 06011G14KT 10SM -RA BKN110 17/16 A3012 RMK AO2 LTG DSNT SE T01670156
KSNL 220255Z AUTO 06013G18KT 10SM -RA SCT009 SCT050 BKN120 17/16 A3012 RMK AO2 60014 T01680156
KSNL 220235Z AUTO 05015G20KT 10SM SCT009 OVC100 17/16 A3012 RMK AO2 T01680158
KSNL 220215Z AUTO 05014G18KT 10SM -DZ SCT011 SCT060 OVC100 17/16 A3012 RMK AO2 T01670158
KSNL 220155Z AUTO 04010KT 10SM -RA SCT009 BKN075 OVC110 17/16 A3011 RMK AO2 P0004 T01650156
KSNL 220135Z AUTO 04014G17KT 10SM -RA SCT009 SCT029 OVC065 16/15 A3011 RMK AO2 LTG DSNT SE P0003 T01620153
KSNL 220115Z AUTO 04013G20KT 10SM -RA BKN009 BKN025 OVC032 16/15 A3011 RMK AO2 P0002 T01630153
KSNL 220055Z AUTO 03013G21KT 7SM RA OVC007 17/16 A3011 RMK AO2 P0010 T01650156
KSNL 220035Z AUTO 04015G22KT 7SM -RA OVC007 17/16 A3010 RMK AO2 P0006 T01650156
KSNL 220015Z AUTO 03014G21KT 7SM -RA OVC009 16/15 A3009 RMK AO2 P0002 T01610153